Time;durP1;ratioP1;P1;durP2;ratioP2;P2;SDS_P1;SDS_P2;PMS_P1;PMS_P2;Temp;Humidity;BMP_temperature;BMP_pressure;BME280_temperature;BME280_humidity;BME280_pressure;Samples;Min_cycle;Max_cycle;Signal;HPM_P1;HPM_P2
2022/08/22 00:02:22;;;;;;;12.77;5.60;;;;;;;-145.18;100.00;46646.72;5031788;28;20112;-79
2022/08/22 00:05:04;;;;;;;10.63;6.27;;;;;;;-145.18;100.00;46642.81;5032463;28;20413;-80
2022/08/22 00:07:47;;;;;;;10.47;6.47;;;;;;;-145.18;100.00;46679.94;5031962;28;20032;-79
2022/08/22 00:11:02;;;;;;;11.03;5.87;;;;;;;-145.18;100.00;46646.72;5031529;28;20032;-79
2022/08/22 00:13:33;;;;;;;13.07;6.43;;;;;;;-145.18;100.00;46642.81;5005879;28;20051;-79
2022/08/22 00:16:41;;;;;;;13.90;7.00;;;;;;;-145.18;100.00;46642.81;5031786;28;20112;-78
2022/08/22 00:19:12;;;;;;;8.97;5.47;;;;;;;-145.18;100.00;46644.78;5024690;28;20128;-78
2022/08/22 00:21:57;;;;;;;15.37;6.87;;;;;;;-145.18;100.00;46640.88;5031870;28;20074;-78
2022/08/22 00:24:47;;;;;;;16.97;8.00;;;;;;;-145.18;100.00;46644.78;5031849;28;20033;-78
2022/08/22 00:27:45;;;;;;;14.83;8.80;;;;;;;-145.18;100.00;46640.88;5031953;28;20033;-78
2022/08/22 00:30:15;;;;;;;17.07;7.50;;;;;;;-145.18;100.00;46646.72;5031697;28;20041;-78
2022/08/22 00:32:58;;;;;;;22.00;7.53;;;;;;;-145.18;100.00;46648.69;5031477;28;20037;-77
2022/08/22 00:35:45;;;;;;;18.07;7.00;;;;;;;-145.18;100.00;46646.72;5040071;28;20021;-78
2022/08/22 00:38:20;;;;;;;11.73;6.57;;;;;;;-145.18;100.00;46642.81;5052080;28;20079;-78
2022/08/22 00:40:48;;;;;;;;;;;;;;;-145.18;100.00;46642.81;5052159;28;20489;-78
2022/08/22 00:43:26;;;;;;;12.43;6.20;;;;;;;-145.18;100.00;46644.78;5051440;28;19917;-78
2022/08/22 00:46:05;;;;;;;17.13;6.53;;;;;;;-145.18;100.00;46644.78;5052003;28;20025;-78
2022/08/22 00:49:09;;;;;;;15.30;6.80;;;;;;;-145.18;100.00;46642.81;5051320;28;20104;-78
2022/08/22 00:51:48;;;;;;;16.50;6.70;;;;;;;-145.18;100.00;46644.78;5050981;28;20037;-78
2022/08/22 00:54:34;;;;;;;10.90;6.87;;;;;;;-145.18;100.00;46642.81;5051656;28;20033;-78
2022/08/22 00:57:21;;;;;;;14.20;7.23;;;;;;;-145.18;100.00;46642.81;5051213;28;20056;-78
2022/08/22 01:00:26;;;;;;;15.37;7.57;;;;;;;-145.18;100.00;46646.72;5051549;28;20040;-79
2022/08/22 01:03:43;;;;;;;13.97;6.57;;;;;;;-145.18;100.00;46646.72;5049601;28;20055;-78
2022/08/22 01:06:23;;;;;;;13.07;6.97;;;;;;;-145.18;100.00;46646.72;4970032;28;20027;-78
2022/08/22 01:09:19;;;;;;;11.50;6.30;;;;;;;-145.18;100.00;46644.78;4970327;28;20169;-78
2022/08/22 01:12:10;;;;;;;15.80;6.55;;;;;;;-145.18;100.00;46648.69;5038849;28;20075;-78
2022/08/22 01:14:35;;;;;;;17.30;6.63;;;;;;;-145.18;100.00;46646.72;5050912;28;20045;-78
2022/08/22 01:17:12;;;;;;;14.47;5.93;;;;;;;-145.18;100.00;46644.78;5050852;28;20432;-78
2022/08/22 01:19:54;;;;;;;15.87;6.20;;;;;;;-145.18;100.00;46644.78;5051156;28;20079;-78
2022/08/22 01:22:25;;;;;;;13.90;6.47;;;;;;;-145.18;100.00;46648.69;5050433;28;20021;-78
2022/08/22 01:25:17;;;;;;;16.67;7.40;;;;;;;-145.18;100.00;46646.72;5050943;28;20036;-78
2022/08/22 01:28:11;;;;;;;14.87;6.90;;;;;;;-145.18;100.00;46650.63;5036699;28;20616;-78
2022/08/22 01:30:57;;;;;;;14.63;6.67;;;;;;;-145.18;100.00;46642.81;5050911;28;20036;-78
2022/08/22 01:33:57;;;;;;;19.70;6.83;;;;;;;-145.18;100.00;46648.69;5032398;28;20101;-78
2022/08/22 01:37:10;;;;;;;20.60;7.57;;;;;;;-145.18;100.00;46646.72;5050155;28;20551;-78
2022/08/22 01:39:39;;;;;;;14.60;6.57;;;;;;;-145.18;100.00;46644.78;4989590;28;20045;-79
2022/08/22 01:42:04;;;;;;;13.00;6.70;;;;;;;-145.18;100.00;46679.94;5050610;28;20404;-78
2022/08/22 01:45:01;;;;;;;15.07;7.27;;;;;;;-145.18;100.00;46648.69;5050424;28;20112;-78
2022/08/22 01:47:42;;;;;;;13.17;7.50;;;;;;;-145.18;100.00;46644.78;5050361;28;20120;-78
2022/08/22 01:50:43;;;;;;;12.90;6.50;;;;;;;-145.18;100.00;46646.72;5050723;28;20039;-77
2022/08/22 01:53:29;;;;;;;13.23;6.63;;;;;;;-145.18;100.00;46646.72;5044741;28;20049;-78
2022/08/22 01:56:10;;;;;;;;;;;;;;;-145.18;100.00;46642.81;5051086;28;20025;-78
2022/08/22 01:58:44;;;;;;;17.70;7.43;;;;;;;-145.18;100.00;46644.78;5049915;28;19948;-79
2022/08/22 02:04:06;;;;;;;17.15;7.75;;;;;;;-145.18;100.00;46644.78;4643965;22;20072;-79
2022/08/22 02:06:40;;;;;;;16.83;6.80;;;;;;;-145.18;100.00;46646.72;5019060;28;20644;-80
2022/08/22 02:09:38;;;;;;;12.77;7.30;;;;;;;-145.18;100.00;46644.78;5027661;28;20377;-80
2022/08/22 02:12:40;;;;;;;20.60;8.10;;;;;;;-145.18;100.00;46644.78;5030045;28;20063;-79
2022/08/22 02:15:21;;;;;;;15.00;7.20;;;;;;;-145.18;100.00;46642.81;5030344;28;20120;-79
2022/08/22 02:18:11;;;;;;;14.73;7.20;;;;;;;-145.18;100.00;46646.72;5047172;28;20546;-79
2022/08/22 02:21:09;;;;;;;17.63;7.57;;;;;;;-145.18;100.00;46644.78;5030861;28;20109;-79
2022/08/22 02:24:20;;;;;;;15.57;7.07;;;;;;;-145.18;100.00;46646.72;5012728;28;20517;-78
2022/08/22 02:27:04;;;;;;;17.23;7.00;;;;;;;-145.18;100.00;46644.78;4931074;29;20055;-80
2022/08/22 02:29:42;;;;;;;14.80;6.57;;;;;;;-145.18;100.00;46644.78;5028921;28;20635;-79
2022/08/22 02:32:24;;;;;;;16.93;6.97;;;;;;;-145.18;100.00;46642.81;5030679;28;20084;-79
2022/08/22 02:35:13;;;;;;;16.40;7.30;;;;;;;-145.18;100.00;46646.72;5034567;28;20041;-79
2022/08/22 02:38:01;;;;;;;18.50;7.23;;;;;;;-145.18;100.00;46648.69;5034299;28;20543;-80
2022/08/22 02:40:34;;;;;;;18.00;7.40;;;;;;;-145.18;100.00;46648.69;5034453;28;20041;-79
2022/08/22 02:43:14;;;;;;;14.80;6.93;;;;;;;-145.18;100.00;46679.94;5034144;28;20493;-79
2022/08/22 02:45:48;;;;;;;12.20;6.23;;;;;;;-145.18;100.00;46642.81;5034583;28;20029;-79
2022/08/22 02:48:35;;;;;;;13.33;6.80;;;;;;;-145.18;100.00;46677.97;5033667;28;20033;-79
2022/08/22 02:51:10;;;;;;;14.33;6.10;;;;;;;-145.18;100.00;46644.78;5034320;28;20029;-79
2022/08/22 02:53:47;;;;;;;14.68;6.88;;;;;;;-145.18;100.00;46642.81;5034249;28;20032;-79
2022/08/22 02:56:20;;;;;;;13.47;7.00;;;;;;;-145.18;100.00;46642.81;5034265;28;20663;-78
2022/08/22 02:58:50;;;;;;;16.97;6.40;;;;;;;-145.18;100.00;46644.78;5033700;28;20170;-78
2022/08/22 03:01:23;;;;;;;13.90;6.60;;;;;;;-145.18;100.00;46648.69;5012344;28;20106;-77
2022/08/22 03:03:50;;;;;;;18.73;6.77;;;;;;;-145.18;100.00;46679.94;5013985;28;20054;-78
2022/08/22 03:06:31;;;;;;;15.20;7.50;;;;;;;-145.18;100.00;46642.81;5014059;28;20053;-78
2022/08/22 03:09:24;;;;;;;12.50;7.10;;;;;;;-145.18;100.00;46644.78;5013713;28;20493;-78
2022/08/22 03:12:02;;;;;;;15.13;7.47;;;;;;;-145.18;100.00;46640.88;5004206;28;20050;-78
2022/08/22 03:14:35;;;;;;;11.90;7.07;;;;;;;-145.18;100.00;46660.41;5013795;28;20432;-78
2022/08/22 03:17:15;;;;;;;12.20;6.90;;;;;;;-145.18;100.00;46660.41;5013889;28;20034;-78
2022/08/22 03:20:05;;;;;;;16.33;7.47;;;;;;;-145.18;100.00;46660.41;5014032;28;20037;-78
2022/08/22 03:22:58;;;;;;;18.50;8.03;;;;;;;-145.18;100.00;46677.97;5013440;28;20018;-78
2022/08/22 03:25:39;;;;;;;11.47;7.53;;;;;;;-145.18;100.00;46660.41;5013568;28;20072;-79
2022/08/22 03:28:17;;;;;;;15.10;7.13;;;;;;;-145.18;100.00;46660.41;5013426;28;20026;-78
2022/08/22 03:30:55;;;;;;;17.90;7.90;;;;;;;-145.18;100.00;46677.97;5013564;28;20033;-78
2022/08/22 03:33:26;;;;;;;12.93;6.70;;;;;;;-145.18;100.00;46677.97;5013052;28;20105;-78
2022/08/22 03:36:03;;;;;;;13.00;6.43;;;;;;;-145.18;100.00;46679.94;5032334;28;20036;-78
2022/08/22 03:38:31;;;;;;;16.13;7.37;;;;;;;-145.18;100.00;46640.88;5032655;28;20032;-78
2022/08/22 03:41:23;;;;;;;11.50;6.20;;;;;;;-145.18;100.00;46640.88;5032901;28;20025;-77
2022/08/22 03:44:02;;;;;;;15.30;6.90;;;;;;;-145.18;100.00;46640.88;5032724;28;20104;-77
2022/08/22 03:47:12;;;;;;;14.37;6.67;;;;;;;-145.18;100.00;46642.81;5032823;28;20071;-77
2022/08/22 03:50:09;;;;;;;16.27;6.87;;;;;;;-145.18;100.00;46660.41;5033429;28;20051;-76
2022/08/22 03:53:10;;;;;;;19.37;7.77;;;;;;;-145.18;100.00;46679.94;5032775;28;20033;-78
2022/08/22 03:56:12;;;;;;;22.97;7.63;;;;;;;-145.18;100.00;46640.88;5030900;28;20493;-78
2022/08/22 03:59:19;;;;;;;19.83;7.83;;;;;;;-145.18;100.00;46640.88;5028117;28;20052;-78
2022/08/22 04:01:56;;;;;;;16.52;6.95;;;;;;;-145.18;100.00;46677.97;5012695;28;20661;-76
2022/08/22 04:04:55;;;;;;;17.60;6.97;;;;;;;-145.18;100.00;46660.41;5013103;28;20152;-77
2022/08/22 04:07:42;;;;;;;19.40;7.07;;;;;;;-145.18;100.00;46679.94;5027790;28;20032;-78
2022/08/22 04:10:44;;;;;;;10.37;6.47;;;;;;;-145.18;100.00;46660.41;5025239;28;20072;-77
2022/08/22 04:13:22;;;;;;;17.93;6.93;;;;;;;-145.18;100.00;46640.88;5005895;28;20036;-77
2022/08/22 04:16:13;;;;;;;15.57;7.40;;;;;;;-145.18;100.00;46660.41;5012964;28;20087;-78
2022/08/22 04:19:06;;;;;;;14.23;6.80;;;;;;;-145.18;100.00;46660.41;5012938;28;20398;-78
2022/08/22 04:21:46;;;;;;;13.67;6.70;;;;;;;-145.18;100.00;46660.41;5012772;28;20033;-77
2022/08/22 04:24:28;;;;;;;14.13;7.20;;;;;;;-145.18;100.00;46640.88;5012379;28;20038;-77
2022/08/22 04:27:04;;;;;;;14.07;6.63;;;;;;;-145.18;100.00;46660.41;5032129;28;20037;-78
2022/08/22 04:29:44;;;;;;;15.43;7.87;;;;;;;-145.18;100.00;46642.81;5032010;28;20036;-77
2022/08/22 04:32:24;;;;;;;17.77;7.07;;;;;;;-145.18;100.00;46679.94;5032215;28;20041;-77
2022/08/22 04:34:55;;;;;;;19.83;8.00;;;;;;;-145.18;100.00;46660.41;5032079;28;20401;-77
2022/08/22 04:37:36;;;;;;;18.90;8.50;;;;;;;-145.18;100.00;46660.41;5031826;28;20029;-78
2022/08/22 04:40:14;;;;;;;14.80;7.73;;;;;;;-145.18;100.00;46679.94;5031916;28;20018;-78
2022/08/22 04:42:50;;;;;;;17.67;8.53;;;;;;;-145.18;100.00;46660.41;5031304;28;20056;-79
2022/08/22 04:45:25;;;;;;;14.53;7.23;;;;;;;-145.18;100.00;46660.41;5030302;28;20032;-79
2022/08/22 04:47:53;;;;;;;15.73;7.67;;;;;;;-145.18;100.00;46676.03;5031012;28;20053;-78
2022/08/22 04:50:38;;;;;;;15.87;7.27;;;;;;;-145.18;100.00;46660.41;5031657;28;20258;-77
2022/08/22 04:53:22;;;;;;;14.75;7.35;;;;;;;-145.18;100.00;46660.41;5031040;28;20785;-78
2022/08/22 04:55:53;;;;;;;16.07;7.80;;;;;;;-145.18;100.00;46660.41;5030836;28;20025;-79
2022/08/22 04:58:40;;;;;;;17.53;8.30;;;;;;;-145.18;100.00;46660.41;5030827;28;20075;-78
2022/08/22 05:01:05;;;;;;;12.83;7.53;;;;;;;-145.18;100.00;46660.41;5031403;28;20171;-78
2022/08/22 05:03:34;;;;;;;15.67;7.50;;;;;;;-145.18;100.00;46677.97;5031140;28;20576;-78
2022/08/22 05:06:04;;;;;;;16.47;7.27;;;;;;;-145.18;100.00;46660.41;5031383;28;20057;-77
2022/08/22 05:08:33;;;;;;;13.20;6.43;;;;;;;-145.18;100.00;46676.03;5029790;28;20025;-77
2022/08/22 05:11:04;;;;;;;16.57;7.50;;;;;;;-145.18;100.00;46660.41;5030607;28;20478;-78
2022/08/22 05:13:36;;;;;;;18.83;7.30;;;;;;;-145.18;100.00;46660.41;5030693;28;20032;-78
2022/08/22 05:16:08;;;;;;;17.00;7.10;;;;;;;-145.18;100.00;46660.41;5030670;28;20104;-77
2022/08/22 05:18:41;;;;;;;12.17;6.57;;;;;;;-145.18;100.00;46660.41;5025298;28;20048;-78
2022/08/22 05:21:10;;;;;;;18.37;7.00;;;;;;;-145.18;100.00;46660.41;5030382;28;20037;-78
2022/08/22 05:23:53;;;;;;;23.60;7.10;;;;;;;-145.18;100.00;46640.88;5030326;28;20026;-77
2022/08/22 05:26:20;;;;;;;14.00;6.40;;;;;;;-145.18;100.00;46660.41;5028530;28;20037;-78
2022/08/22 05:28:56;;;;;;;10.57;6.70;;;;;;;-145.18;100.00;46660.41;5029682;28;20037;-77
2022/08/22 05:31:31;;;;;;;13.20;6.93;;;;;;;-145.18;100.00;46660.41;5028585;28;20033;-78
2022/08/22 05:34:12;;;;;;;21.73;7.40;;;;;;;-145.18;100.00;46638.91;5029862;28;20095;-78
2022/08/22 05:36:47;;;;;;;19.17;7.73;;;;;;;-145.18;100.00;46640.88;5028599;28;20170;-77
2022/08/22 05:39:17;;;;;;;15.13;6.25;;;;;;;-145.18;100.00;46638.91;5029972;28;20029;-78
2022/08/22 05:41:43;;;;;;;17.30;6.30;;;;;;;-145.18;100.00;46640.88;5029918;28;20051;-77
2022/08/22 05:44:36;;;;;;;14.40;6.60;;;;;;;-145.18;100.00;46660.41;5029596;28;20029;-78
2022/08/22 05:47:34;;;;;;;13.80;5.43;;;;;;;-145.18;100.00;46640.88;5027720;28;20072;-78
2022/08/22 05:50:03;;;;;;;20.17;6.70;;;;;;;-145.18;100.00;46642.81;5029556;28;20017;-78
2022/08/22 05:52:57;;;;;;;13.33;5.47;;;;;;;-145.18;100.00;46642.81;5030565;28;20025;-77
2022/08/22 05:55:35;;;;;;;17.83;7.60;;;;;;;-145.18;100.00;46640.88;5030966;28;20033;-77
2022/08/22 05:58:22;;;;;;;14.60;6.33;;;;;;;-145.18;100.00;46644.78;5030531;28;20029;-77
2022/08/22 06:01:15;;;;;;;16.73;6.40;;;;;;;-145.18;100.00;46642.81;5030988;28;20029;-78
2022/08/22 06:04:07;;;;;;;20.87;7.03;;;;;;;-145.18;100.00;46646.72;5030459;28;20037;-77
2022/08/22 06:06:40;;;;;;;26.43;8.17;;;;;;;-145.18;100.00;46644.78;5030452;28;20025;-77
2022/08/22 06:09:46;;;;;;;17.30;6.20;;;;;;;-145.18;100.00;46644.78;5033319;28;20032;-78
2022/08/22 06:12:42;;;;;;;17.52;7.80;;;;;;;-145.18;100.00;46642.81;4995669;28;20128;-77
2022/08/22 06:15:50;;;;;;;19.97;6.70;;;;;;;-145.18;100.00;46646.72;5034769;28;20037;-77
2022/08/22 06:18:21;;;;;;;19.47;6.43;;;;;;;-145.18;100.00;46646.72;5033938;28;20068;-77
2022/08/22 06:21:02;;;;;;;14.30;6.57;;;;;;;-145.18;100.00;46642.81;5034725;28;20079;-78
2022/08/22 06:23:37;;;;;;;19.67;6.87;;;;;;;-145.18;100.00;46646.72;5034384;28;20033;-78
2022/08/22 06:26:04;;;;;;;13.95;6.30;;;;;;;-145.18;100.00;46642.81;5034852;28;20014;-78
2022/08/22 06:28:42;;;;;;;18.03;6.93;;;;;;;-145.18;100.00;46644.78;5034055;28;20041;-78
2022/08/22 06:31:18;;;;;;;20.50;7.13;;;;;;;-145.18;100.00;46646.72;5033286;28;20026;-77
2022/08/22 06:33:46;;;;;;;17.07;6.40;;;;;;;-145.18;100.00;46644.78;5027602;28;20042;-77
2022/08/22 06:36:29;;;;;;;16.53;6.37;;;;;;;-145.18;100.00;46646.72;5034465;28;20025;-78
2022/08/22 06:39:23;;;;;;;15.17;6.97;;;;;;;-145.18;100.00;46644.78;5034084;28;20036;-78
2022/08/22 06:41:54;;;;;;;13.50;6.50;;;;;;;-145.18;100.00;46642.81;5016680;28;20473;-78
2022/08/22 06:44:27;;;;;;;15.90;6.87;;;;;;;-145.18;100.00;46648.69;5033800;28;20033;-78
2022/08/22 06:46:56;;;;;;;16.10;6.73;;;;;;;-145.18;100.00;46642.81;5034936;28;20400;-78
2022/08/22 06:49:24;;;;;;;22.27;8.00;;;;;;;-145.18;100.00;46644.78;5034086;28;20029;-78
2022/08/22 06:51:50;;;;;;;18.53;7.03;;;;;;;-145.18;100.00;46646.72;5034566;28;20040;-78
2022/08/22 06:54:23;;;;;;;15.70;7.47;;;;;;;-145.18;100.00;46648.69;5033697;28;20029;-78
2022/08/22 06:56:51;;;;;;;13.77;6.90;;;;;;;-145.18;100.00;46646.72;5034031;28;20064;-78
2022/08/22 06:59:25;;;;;;;21.63;7.37;;;;;;;-145.18;100.00;46644.78;5033731;28;20358;-78
2022/08/22 07:02:26;;;;;;;15.10;7.70;;;;;;;-145.18;100.00;46648.69;5033961;28;20051;-77
2022/08/22 07:04:51;;;;;;;17.57;7.43;;;;;;;-145.18;100.00;46652.59;5034144;28;20087;-78
2022/08/22 07:07:19;;;;;;;18.07;7.50;;;;;;;-145.18;100.00;46648.69;5032227;28;20099;-78
2022/08/22 07:09:54;;;;;;;18.20;7.37;;;;;;;-145.18;100.00;46650.63;5033128;28;20037;-78
2022/08/22 07:12:25;;;;;;;22.83;7.88;;;;;;;-145.18;100.00;46648.69;5033440;28;20108;-78
2022/08/22 07:14:53;;;;;;;17.77;7.50;;;;;;;-145.18;100.00;46648.69;5033751;28;20522;-78
2022/08/22 07:17:28;;;;;;;18.37;7.70;;;;;;;-145.18;100.00;46650.63;5033772;28;20417;-78
2022/08/22 07:19:56;;;;;;;16.13;8.15;;;;;;;-145.18;100.00;46652.59;5032588;28;20029;-78
2022/08/22 07:22:29;;;;;;;19.40;8.53;;;;;;;-145.18;100.00;46648.69;5031363;28;20033;-78
2022/08/22 07:25:15;;;;;;;16.93;8.10;;;;;;;-145.18;100.00;46650.63;5033622;28;20039;-78
2022/08/22 07:28:02;;;;;;;17.85;8.18;;;;;;;-145.18;100.00;46648.69;5031984;28;20041;-77
2022/08/22 07:30:52;;;;;;;22.03;8.43;;;;;;;-145.18;100.00;46650.63;5033449;28;20367;-77
2022/08/22 07:33:31;;;;;;;17.73;8.13;;;;;;;-145.18;100.00;46648.69;5032201;28;20557;-78
2022/08/22 07:36:00;;;;;;;18.40;7.70;;;;;;;-145.18;100.00;46648.69;5033848;28;20025;-78
2022/08/22 07:38:46;;;;;;;20.07;8.43;;;;;;;-145.18;100.00;46644.78;5032804;28;20029;-78
2022/08/22 07:41:23;;;;;;;17.57;8.03;;;;;;;-145.18;100.00;46648.69;5033173;28;20064;-78
2022/08/22 07:44:31;;;;;;;20.80;8.30;;;;;;;-145.18;100.00;46648.69;5032858;28;20053;-77
2022/08/22 07:46:59;;;;;;;22.67;8.37;;;;;;;-145.18;100.00;46648.69;4972204;28;20042;-77
2022/08/22 07:49:31;;;;;;;17.67;8.30;;;;;;;-145.18;100.00;46654.53;5021447;28;20435;-77
2022/08/22 07:52:06;;;;;;;12.00;7.50;;;;;;;-145.18;100.00;46650.63;5033401;28;20032;-77
2022/08/22 07:54:36;;;;;;;;;;;;;;;-145.18;100.00;46656.50;5033317;28;20382;-78
2022/08/22 07:57:09;;;;;;;13.33;7.70;;;;;;;-145.18;100.00;46656.50;5032352;28;19913;-78
2022/08/22 07:59:37;;;;;;;16.60;7.83;;;;;;;-145.18;100.00;46650.63;5032962;28;20026;-78
2022/08/22 08:02:09;;;;;;;14.57;8.10;;;;;;;-145.18;100.00;46660.41;5032401;28;20025;-77
2022/08/22 08:04:35;;;;;;;17.50;8.47;;;;;;;-145.18;100.00;46660.41;5032473;28;20405;-77
2022/08/22 08:07:04;;;;;;;17.23;7.87;;;;;;;-145.18;100.00;46662.34;5033088;28;20076;-78
2022/08/22 08:09:33;;;;;;;13.57;8.07;;;;;;;-145.18;100.00;46664.31;5032727;28;20454;-77
2022/08/22 08:12:02;;;;;;;17.37;8.73;;;;;;;-145.18;100.00;46666.25;5033252;28;20474;-77
2022/08/22 08:14:29;;;;;;;19.30;9.10;;;;;;;-145.18;100.00;46670.16;5030906;28;20034;-77
2022/08/22 08:17:09;;;;;;;18.87;8.03;;;;;;;-145.18;100.00;46672.13;5032917;28;20046;-77
2022/08/22 08:19:39;;;;;;;16.80;7.87;;;;;;;-145.18;100.00;46670.16;5032615;28;20034;-77
2022/08/22 08:22:05;;;;;;;24.07;8.77;;;;;;;-145.18;100.00;46670.16;5032518;28;20044;-76
2022/08/22 08:24:35;;;;;;;15.27;7.53;;;;;;;-145.18;100.00;46668.22;5032243;28;20053;-77
2022/08/22 08:30:01;;;;;;;16.97;7.97;;;;;;;-145.18;100.00;46646.72;5022425;28;20056;-76
2022/08/22 08:32:30;;;;;;;17.97;8.13;;;;;;;-145.18;100.00;46660.41;5017689;28;20028;-76
2022/08/22 08:34:56;;;;;;;15.67;6.80;;;;;;;-145.18;100.00;46664.31;5032204;28;20026;-77
2022/08/22 08:37:32;;;;;;;18.17;7.43;;;;;;;-145.18;100.00;46668.22;5032516;28;20036;-77
2022/08/22 08:40:00;;;;;;;13.03;6.77;;;;;;;-145.18;100.00;46660.41;5030273;28;20029;-77
2022/08/22 08:46:00;;;;;;;19.33;7.20;;;;;;;-145.18;100.00;46640.88;5032973;28;20125;-76
2022/08/22 08:48:50;;;;;;;12.57;7.07;;;;;;;-145.18;100.00;46621.31;5031850;28;20041;-77
2022/08/22 08:51:24;;;;;;;16.30;5.57;;;;;;;-145.18;100.00;46580.31;5032207;28;20043;-77
2022/08/22 08:54:30;;;;;;;14.77;3.80;;;;;;;-145.18;100.00;46539.28;5031796;28;20030;-77
2022/08/22 08:56:58;;;;;;;9.48;3.70;;;;;;;-145.18;100.00;46543.19;5032553;28;20481;-77
2022/08/22 08:59:43;;;;;;;13.63;4.13;;;;;;;-145.18;100.00;46558.81;5031810;28;20029;-76
2022/08/22 09:02:35;;;;;;;8.33;3.30;;;;;;;-145.18;100.00;46551.00;5031788;28;20112;-77
2022/08/22 09:05:24;;;;;;;9.17;3.40;;;;;;;-145.18;100.00;46560.78;5031586;28;20155;-77
2022/08/22 09:08:08;;;;;;;10.10;3.47;;;;;;;-145.18;100.00;46562.72;5031949;28;20020;-77
2022/08/22 09:11:03;;;;;;;10.87;3.53;;;;;;;-145.18;100.00;46554.91;5031647;28;20033;-77
2022/08/22 09:13:50;;;;;;;11.13;3.53;;;;;;;-145.18;100.00;46547.09;5031705;28;20537;-77
2022/08/22 09:16:21;;;;;;;9.53;3.90;;;;;;;-145.18;100.00;46568.59;5031436;28;20083;-76
2022/08/22 09:18:49;;;;;;;11.87;3.60;;;;;;;-145.18;100.00;46580.31;5031278;28;20026;-77
2022/08/22 09:21:54;;;;;;;9.50;3.53;;;;;;;-145.18;100.00;46593.97;5031868;28;20049;-77
2022/08/22 09:24:45;;;;;;;12.53;3.93;;;;;;;-145.18;100.00;46621.31;5018213;28;20417;-77
2022/08/22 09:27:20;;;;;;;18.33;3.30;;;;;;;-145.18;100.00;46582.25;5027467;28;20065;-77
2022/08/22 09:29:50;;;;;;;11.02;4.35;;;;;;;-145.18;100.00;46615.47;5031357;28;20478;-77
2022/08/22 09:32:27;;;;;;;11.13;3.60;;;;;;;-145.18;100.00;46666.25;5022345;28;20512;-77
2022/08/22 09:35:29;;;;;;;13.33;3.73;;;;;;;-145.18;100.00;46988.56;5031319;28;20025;-77
2022/08/22 09:38:34;;;;;;;12.00;3.20;;;;;;;-145.18;100.00;47123.38;5031507;28;20389;-77
2022/08/22 09:41:17;;;;;;;10.23;3.10;;;;;;;-145.18;100.00;47183.94;5011786;28;20036;-76
2022/08/22 09:43:55;;;;;;;10.50;3.70;;;;;;;-145.18;100.00;47140.94;5011261;28;20044;-76
2022/08/22 09:46:25;;;;;;;9.93;3.80;;;;;;;-145.18;100.00;47158.53;5011506;28;20117;-76
2022/08/22 09:49:26;;;;;;;12.67;3.47;;;;;;;-145.18;100.00;47160.47;5011208;28;20022;-76
2022/08/22 09:52:13;;;;;;;10.43;3.40;;;;;;;-145.18;100.00;47181.97;5011657;28;20045;-76
2022/08/22 09:55:04;;;;;;;16.67;4.28;;;;;;;-145.18;100.00;47156.56;5011214;28;20176;-76
2022/08/22 09:58:05;;;;;;;8.30;3.08;;;;;;;-145.18;100.00;47170.25;5011264;28;20034;-76
2022/08/22 10:00:45;;;;;;;11.43;3.75;;;;;;;-145.18;100.00;47178.06;4969664;28;20394;-76
2022/08/22 10:03:40;;;;;;;14.82;3.95;;;;;;;-145.18;100.00;47176.09;5010787;28;20038;-76
2022/08/22 10:06:17;;;;;;;13.05;4.30;;;;;;;-145.18;100.00;47121.41;5011370;28;20037;-76
2022/08/22 10:08:56;;;;;;;10.95;3.80;;;;;;;-145.18;100.00;47160.47;5011048;28;20033;-76
2022/08/22 10:11:38;;;;;;;11.30;3.70;;;;;;;-145.18;100.00;47078.44;4995392;28;20022;-76
2022/08/22 10:14:13;;;;;;;11.52;3.55;;;;;;;-145.18;100.00;47076.47;5029066;28;20026;-76
2022/08/22 10:16:58;;;;;;;;;;;;;;;-145.18;100.00;47086.25;5031315;28;20100;-75
2022/08/22 10:19:48;;;;;;;12.02;3.38;;;;;;;-145.18;100.00;47047.19;5030585;28;19963;-76
2022/08/22 10:22:22;;;;;;;13.75;3.65;;;;;;;-145.18;100.00;47031.53;5030449;28;20025;-77
2022/08/22 10:25:06;;;;;;;12.32;3.97;;;;;;;-145.18;100.00;46986.63;5030787;28;20025;-77
2022/08/22 10:27:56;;;;;;;13.52;3.53;;;;;;;-145.18;100.00;46976.84;5011158;28;20030;-77
2022/08/22 10:30:32;;;;;;;9.88;3.63;;;;;;;-145.18;100.00;46992.47;5010688;28;20019;-77
2022/08/22 10:33:23;;;;;;;;;;;;;;;-145.18;100.00;46978.81;5028412;28;20025;-77
2022/08/22 10:36:14;;;;;;;8.48;3.40;;;;;;;-145.18;100.00;46976.84;5030503;28;19996;-77
2022/08/22 10:38:50;;;;;;;11.82;4.07;;;;;;;-145.18;100.00;47004.19;5030456;28;20557;-76
2022/08/22 10:41:23;;;;;;;9.77;3.35;;;;;;;-145.18;100.00;47000.28;5030846;28;20029;-76
2022/08/22 10:44:28;;;;;;;10.80;3.47;;;;;;;-145.18;100.00;47006.16;5030595;28;20034;-76
2022/08/22 10:47:00;;;;;;;8.65;3.65;;;;;;;-145.18;100.00;47017.88;5030702;28;20069;-76
2022/08/22 10:49:45;;;;;;;15.95;4.18;;;;;;;-145.18;100.00;47019.81;5030028;28;20059;-76
2022/08/22 10:52:23;;;;;;;10.38;3.03;;;;;;;-145.18;100.00;47023.72;5030752;28;20033;-76
2022/08/22 10:54:55;;;;;;;12.38;2.78;;;;;;;-145.18;100.00;47013.97;5032401;28;20250;-77
2022/08/22 10:57:51;;;;;;;11.18;2.70;;;;;;;-145.18;100.00;47008.09;5034402;28;20033;-77
2022/08/22 11:00:44;;;;;;;12.10;2.92;;;;;;;-145.18;100.00;47013.97;5032154;28;20506;-77
2022/08/22 11:03:46;;;;;;;7.30;2.50;;;;;;;-145.18;100.00;47008.09;5033554;28;20071;-76
2022/08/22 11:06:47;;;;;;;14.48;2.67;;;;;;;-145.18;100.00;47019.81;5034464;28;20467;-77
2022/08/22 11:09:37;;;;;;;9.63;2.80;;;;;;;-145.18;100.00;46990.53;5033663;28;20034;-76
2022/08/22 11:12:30;;;;;;;13.75;3.17;;;;;;;-145.18;100.00;46955.34;5034196;28;20029;-76
2022/08/22 11:15:13;;;;;;;7.47;2.75;;;;;;;-145.18;100.00;46957.31;5033633;28;20041;-76
2022/08/22 11:18:07;;;;;;;14.63;3.15;;;;;;;-145.18;100.00;46945.59;5033925;28;20106;-76
2022/08/22 11:20:51;;;;;;;10.93;3.20;;;;;;;-145.18;100.00;46945.59;5033710;28;20930;-76
2022/08/22 11:23:37;;;;;;;13.45;3.28;;;;;;;-145.18;100.00;46953.41;5033912;28;20424;-76
2022/08/22 11:26:30;;;;;;;10.73;3.20;;;;;;;-145.18;100.00;46951.44;5033613;28;20029;-76
2022/08/22 11:29:11;;;;;;;9.38;2.80;;;;;;;-145.18;100.00;46963.19;5029553;28;20409;-77
2022/08/22 11:31:48;;;;;;;9.88;2.72;;;;;;;-145.18;100.00;46953.41;5022852;28;20025;-75
2022/08/22 11:34:38;;;;;;;8.52;2.60;;;;;;;-145.18;100.00;46914.34;5032895;28;20105;-77
2022/08/22 11:37:11;;;;;;;8.15;2.40;;;;;;;-145.18;98.30;46904.56;5033543;28;20112;-78
2022/08/22 11:39:44;;;;;;;6.90;2.38;;;;;;;-145.18;95.83;46910.44;5033006;28;20033;-78
2022/08/22 11:42:30;;;;;;;10.80;3.20;;;;;;;-145.18;96.78;46928.00;5033061;28;20036;-78
2022/08/22 11:44:58;;;;;;;6.85;2.22;;;;;;;-145.18;89.48;46910.44;5032980;28;20026;-78
2022/08/22 11:47:31;;;;;;;10.23;3.00;;;;;;;-145.18;78.53;46881.13;5033130;28;20076;-77
2022/08/22 11:49:59;;;;;;;10.68;1.95;;;;;;;-145.18;76.43;46888.94;5032401;28;20104;-77
2022/08/22 11:52:38;;;;;;;7.13;2.10;;;;;;;-145.18;78.19;46933.88;5033157;28;20040;-77
2022/08/22 11:55:36;;;;;;;7.60;2.20;;;;;;;-145.18;80.02;46941.69;5033070;28;20029;-77
2022/08/22 11:58:23;;;;;;;5.63;2.10;;;;;;;-145.18;88.02;46939.72;4999751;28;20371;-77
2022/08/22 12:01:12;;;;;;;5.50;2.10;;;;;;;-145.18;88.19;46939.72;5032559;28;20052;-77
2022/08/22 12:04:08;;;;;;;11.18;2.65;;;;;;;-145.18;89.87;46918.25;5032839;28;20041;-77
2022/08/22 12:06:38;;;;;;;11.43;2.53;;;;;;;-145.18;84.86;46912.38;5031649;28;20025;-75
2022/08/22 12:09:16;;;;;;;11.73;2.30;;;;;;;-145.18;84.65;46918.25;5032518;28;20029;-75
2022/08/22 12:11:47;;;;;;;11.07;3.25;;;;;;;-145.18;84.30;46926.06;5032986;28;20544;-75
2022/08/22 12:14:24;;;;;;;9.32;2.70;;;;;;;-145.18;86.74;46914.34;5032282;28;20435;-75
2022/08/22 12:17:20;;;;;;;6.15;2.10;;;;;;;-145.18;85.06;46935.81;5031937;28;20524;-74
2022/08/22 12:20:10;;;;;;;9.88;2.50;;;;;;;-145.18;79.68;46924.09;5032664;28;20056;-75